Time;durP1;ratioP1;P1;durP2;ratioP2;P2;SDS_P1;SDS_P2;PMS_P1;PMS_P2;Temp;Humidity;BMP_temperature;BMP_pressure;BME280_temperature;BME280_humidity;BME280_pressure;Samples;Min_cycle;Max_cycle;Signal;HPM_P1;HPM_P2
2022/04/25 00:00:09;;;;;;;19.48;11.30;;;;;;;;;;4990243;28;20034;-80
2022/04/25 00:02:36;;;;;;;17.10;11.38;;;;;;;;;;4990194;28;20019;-80
2022/04/25 00:05:02;;;;;;;22.38;11.45;;;;;;;;;;4990845;28;20085;-80
2022/04/25 00:07:29;;;;;;;16.55;10.55;;;;;;;;;;4994180;28;20025;-80
2022/04/25 00:09:55;;;;;;;17.98;11.10;;;;;;;;;;4994405;28;20060;-80
2022/04/25 00:12:22;;;;;;;18.27;11.02;;;;;;;;;;4994119;28;20022;-80
2022/04/25 00:14:48;;;;;;;18.08;11.18;;;;;;;;;;4994306;28;20034;-80
2022/04/25 00:17:14;;;;;;;19.83;13.27;;;;;;;;;;4994685;28;20025;-80
2022/04/25 00:19:41;;;;;;;20.27;14.35;;;;;;;;;;4994246;28;20076;-80
2022/04/25 00:22:07;;;;;;;22.73;13.52;;;;;;;;;;4994444;28;20410;-80
2022/04/25 00:24:33;;;;;;;20.92;12.57;;;;;;;;;;4994595;28;20507;-80
2022/04/25 00:27:00;;;;;;;17.52;11.63;;;;;;;;;;4994207;28;20030;-80
2022/04/25 00:29:26;;;;;;;19.65;12.48;;;;;;;;;;4994365;28;20049;-80
2022/04/25 00:31:53;;;;;;;20.77;11.93;;;;;;;;;;4994337;28;20022;-80
2022/04/25 00:34:19;;;;;;;22.45;11.77;;;;;;;;;;4993507;28;20034;-80
2022/04/25 00:36:45;;;;;;;19.58;11.77;;;;;;;;;;4993019;28;20414;-80
2022/04/25 00:39:12;;;;;;;16.88;12.95;;;;;;;;;;4994021;28;20041;-80
2022/04/25 00:41:38;;;;;;;24.88;13.07;;;;;;;;;;4994266;28;20026;-80
2022/04/25 00:44:04;;;;;;;22.45;13.55;;;;;;;;;;4994022;28;20030;-80
2022/04/25 00:46:31;;;;;;;20.02;12.77;;;;;;;;;;4993999;28;20042;-80
2022/04/25 00:48:57;;;;;;;18.70;13.25;;;;;;;;;;4994240;28;20057;-80
2022/04/25 00:51:24;;;;;;;19.65;13.02;;;;;;;;;;4993686;28;20396;-80
2022/04/25 00:53:51;;;;;;;23.52;16.15;;;;;;;;;;4993621;28;20030;-80
2022/04/25 00:56:17;;;;;;;29.00;17.17;;;;;;;;;;4993460;28;20034;-80
2022/04/25 00:58:45;;;;;;;22.88;15.00;;;;;;;;;;4993569;28;20084;-80
2022/04/25 01:01:12;;;;;;;22.35;15.05;;;;;;;;;;4993826;28;20030;-80
2022/04/25 01:03:38;;;;;;;20.17;15.27;;;;;;;;;;4993482;28;20498;-81
2022/04/25 01:06:04;;;;;;;24.17;16.10;;;;;;;;;;4993479;28;20032;-80
2022/04/25 01:08:34;;;;;;;25.90;15.52;;;;;;;;;;4993517;28;20072;-80
2022/04/25 01:11:04;;;;;;;27.48;15.52;;;;;;;;;;4992293;28;20026;-80
2022/04/25 01:13:31;;;;;;;24.17;16.30;;;;;;;;;;4993277;28;20474;-80
2022/04/25 01:15:57;;;;;;;27.73;17.65;;;;;;;;;;4993336;28;20064;-80
2022/04/25 01:18:24;;;;;;;35.47;19.15;;;;;;;;;;4993112;28;20091;-80
2022/04/25 01:20:53;;;;;;;33.85;20.88;;;;;;;;;;4993235;28;20033;-80
2022/04/25 01:28:53;;;;;;;33.55;21.38;;;;;;;;;;4990517;28;20041;-80
2022/04/25 01:31:19;;;;;;;36.13;21.45;;;;;;;;;;4991013;28;20032;-80
2022/04/25 01:33:46;;;;;;;37.20;22.48;;;;;;;;;;4993256;28;20022;-80
2022/04/25 01:36:12;;;;;;;41.85;23.75;;;;;;;;;;4992702;28;20022;-80
2022/04/25 01:38:39;;;;;;;36.30;21.38;;;;;;;;;;4992788;28;20068;-80
2022/04/25 01:41:06;;;;;;;42.55;22.75;;;;;;;;;;4993110;28;20032;-80
2022/04/25 01:43:36;;;;;;;42.75;24.48;;;;;;;;;;4977109;28;20399;-80
2022/04/25 01:46:03;;;;;;;46.35;23.00;;;;;;;;;;4988804;28;20533;-80
2022/04/25 01:48:30;;;;;;;43.22;24.75;;;;;;;;;;4993186;28;20042;-80
2022/04/25 01:50:56;;;;;;;48.67;25.25;;;;;;;;;;4992755;28;20031;-81
2022/04/25 01:53:23;;;;;;;38.90;23.98;;;;;;;;;;4992452;28;20022;-80
2022/04/25 01:55:49;;;;;;;47.33;24.42;;;;;;;;;;4992529;28;20517;-80
2022/04/25 01:58:16;;;;;;;43.30;24.17;;;;;;;;;;4991367;28;20022;-80
2022/04/25 02:00:43;;;;;;;47.15;26.75;;;;;;;;;;4992341;28;20041;-80
2022/04/25 02:03:14;;;;;;;50.95;26.88;;;;;;;;;;4991293;28;20121;-80
2022/04/25 02:05:40;;;;;;;49.90;28.65;;;;;;;;;;4988109;28;20361;-80
2022/04/25 02:08:06;;;;;;;54.47;27.92;;;;;;;;;;4988214;28;20031;-81
2022/04/25 02:10:33;;;;;;;51.13;29.40;;;;;;;;;;4992767;28;20033;-80
2022/04/25 02:12:59;;;;;;;52.38;27.23;;;;;;;;;;4992673;28;20087;-80
2022/04/25 02:15:25;;;;;;;54.50;28.10;;;;;;;;;;4991705;28;20038;-80
2022/04/25 02:17:52;;;;;;;43.83;24.98;;;;;;;;;;4992159;28;20034;-80
2022/04/25 02:20:18;;;;;;;45.22;24.42;;;;;;;;;;4992109;28;20030;-80
2022/04/25 02:22:45;;;;;;;35.60;22.42;;;;;;;;;;4992104;28;20029;-80
2022/04/25 02:25:11;;;;;;;35.50;21.92;;;;;;;;;;4991371;28;20034;-80
2022/04/25 02:27:37;;;;;;;32.85;19.63;;;;;;;;;;4988468;28;20036;-80
2022/04/25 02:30:04;;;;;;;29.90;17.50;;;;;;;;;;4987913;28;20044;-80
2022/04/25 02:32:31;;;;;;;26.75;17.08;;;;;;;;;;4987636;28;20021;-80
2022/04/25 02:34:57;;;;;;;29.80;15.95;;;;;;;;;;4988967;28;20061;-80
2022/04/25 02:37:25;;;;;;;24.83;14.48;;;;;;;;;;4990829;28;20046;-80
2022/04/25 02:39:51;;;;;;;27.83;14.10;;;;;;;;;;4992676;28;20029;-80
2022/04/25 02:42:17;;;;;;;32.90;13.70;;;;;;;;;;4992110;28;20026;-80
2022/04/25 02:44:44;;;;;;;31.55;14.80;;;;;;;;;;4991272;28;20054;-80
2022/04/25 02:47:10;;;;;;;36.20;13.45;;;;;;;;;;4991953;28;20027;-80
2022/04/25 02:49:36;;;;;;;21.05;14.23;;;;;;;;;;4991889;28;20018;-80
2022/04/25 02:52:03;;;;;;;23.42;12.77;;;;;;;;;;4992598;28;20037;-80
2022/04/25 02:54:29;;;;;;;21.98;13.77;;;;;;;;;;4991834;28;20072;-80
2022/04/25 02:56:55;;;;;;;26.15;14.32;;;;;;;;;;4991681;28;20025;-80
2022/04/25 02:59:22;;;;;;;28.42;14.02;;;;;;;;;;4991678;28;20041;-80
2022/04/25 03:01:48;;;;;;;27.20;12.93;;;;;;;;;;4991777;28;20491;-80
2022/04/25 03:04:14;;;;;;;26.05;12.07;;;;;;;;;;4991839;28;20521;-80
2022/04/25 03:06:41;;;;;;;30.30;13.77;;;;;;;;;;4992403;28;20029;-80
2022/04/25 03:09:07;;;;;;;28.17;15.15;;;;;;;;;;4991662;28;20030;-80
2022/04/25 03:11:35;;;;;;;22.85;13.80;;;;;;;;;;4991578;28;20046;-80
2022/04/25 03:14:01;;;;;;;27.65;14.07;;;;;;;;;;4991081;28;20033;-80
2022/04/25 03:16:29;;;;;;;33.38;14.85;;;;;;;;;;4991655;28;20484;-80
2022/04/25 03:18:58;;;;;;;30.85;15.52;;;;;;;;;;5006130;28;20014;-80
2022/04/25 03:21:24;;;;;;;31.48;14.98;;;;;;;;;;4987931;28;20023;-80
2022/04/25 03:23:51;;;;;;;26.77;15.02;;;;;;;;;;4987230;28;20524;-80
2022/04/25 03:26:17;;;;;;;26.30;15.27;;;;;;;;;;4986753;28;20015;-78
2022/04/25 03:28:44;;;;;;;28.00;14.90;;;;;;;;;;4991488;28;20060;-80
2022/04/25 03:31:10;;;;;;;19.70;13.07;;;;;;;;;;4990435;28;20488;-80
2022/04/25 03:33:37;;;;;;;20.85;13.27;;;;;;;;;;4991814;28;20023;-80
2022/04/25 03:36:04;;;;;;;22.88;13.45;;;;;;;;;;4991201;28;20154;-80
2022/04/25 03:38:30;;;;;;;25.33;14.90;;;;;;;;;;4991617;28;20023;-80
2022/04/25 03:40:56;;;;;;;29.00;14.70;;;;;;;;;;4991011;28;20049;-80
2022/04/25 03:43:24;;;;;;;33.05;14.98;;;;;;;;;;4991231;28;20034;-80
2022/04/25 03:45:51;;;;;;;27.15;14.20;;;;;;;;;;4991733;28;20042;-80
2022/04/25 03:48:17;;;;;;;32.72;16.15;;;;;;;;;;4993333;28;20034;-80
2022/04/25 03:50:44;;;;;;;31.30;17.23;;;;;;;;;;4990444;28;20036;-80
2022/04/25 03:53:11;;;;;;;28.17;17.75;;;;;;;;;;4990469;28;20031;-80
2022/04/25 03:58:23;;;;;;;34.63;16.30;;;;;;;;;;4993572;28;20391;-80
2022/04/25 04:00:49;;;;;;;28.83;16.48;;;;;;;;;;4990840;28;20109;-80
2022/04/25 04:03:17;;;;;;;27.55;15.25;;;;;;;;;;4990165;28;20446;-80
2022/04/25 04:05:45;;;;;;;26.02;15.93;;;;;;;;;;4990170;28;20026;-80
2022/04/25 04:08:11;;;;;;;27.00;15.15;;;;;;;;;;4994470;28;20053;-80
2022/04/25 04:10:37;;;;;;;27.30;14.65;;;;;;;;;;5009293;28;20022;-80
2022/04/25 04:13:05;;;;;;;26.20;14.70;;;;;;;;;;4994875;28;20041;-80
2022/04/25 04:15:32;;;;;;;27.13;14.63;;;;;;;;;;4994742;28;20492;-80
2022/04/25 04:17:58;;;;;;;29.23;15.82;;;;;;;;;;4994317;28;20376;-80
2022/04/25 04:20:25;;;;;;;29.20;14.75;;;;;;;;;;5009529;28;20022;-80
2022/04/25 04:22:51;;;;;;;34.88;17.13;;;;;;;;;;4990165;28;20023;-80
2022/04/25 04:25:18;;;;;;;31.40;15.75;;;;;;;;;;4993936;28;20073;-80
2022/04/25 04:27:45;;;;;;;26.50;15.15;;;;;;;;;;4996656;28;20041;-80
2022/04/25 04:30:12;;;;;;;33.78;16.30;;;;;;;;;;4991862;28;20026;-80
2022/04/25 04:32:40;;;;;;;27.75;14.73;;;;;;;;;;4993912;28;20496;-80
2022/04/25 04:35:08;;;;;;;27.20;14.15;;;;;;;;;;4994075;28;20038;-80
2022/04/25 04:37:34;;;;;;;19.10;13.15;;;;;;;;;;4978632;28;20026;-80
2022/04/25 04:42:46;;;;;;;22.58;13.32;;;;;;;;;;4995861;28;20027;-80
2022/04/25 04:45:12;;;;;;;29.42;13.88;;;;;;;;;;4991516;28;20096;-81
2022/04/25 04:47:40;;;;;;;32.15;16.65;;;;;;;;;;4993743;28;20534;-80
2022/04/25 04:50:08;;;;;;;36.63;19.25;;;;;;;;;;4993984;28;20026;-80
2022/04/25 04:52:34;;;;;;;36.97;20.33;;;;;;;;;;4978531;28;20026;-80
2022/04/25 04:55:01;;;;;;;36.65;19.15;;;;;;;;;;4989910;28;20042;-80
2022/04/25 04:57:27;;;;;;;34.00;18.50;;;;;;;;;;4988817;28;20410;-80
2022/04/25 04:59:53;;;;;;;31.25;17.77;;;;;;;;;;4988515;28;20030;-80
2022/04/25 05:02:20;;;;;;;34.88;18.25;;;;;;;;;;4989060;28;20438;-80
2022/04/25 05:04:46;;;;;;;34.25;19.25;;;;;;;;;;4991923;28;20022;-80
2022/04/25 05:07:12;;;;;;;30.17;17.08;;;;;;;;;;4991009;28;20030;-80
2022/04/25 05:09:39;;;;;;;32.08;17.35;;;;;;;;;;4989016;28;20040;-80
2022/04/25 05:12:05;;;;;;;29.52;18.63;;;;;;;;;;4988939;28;20415;-80
2022/04/25 05:14:32;;;;;;;27.67;17.80;;;;;;;;;;4988993;28;20034;-80
2022/04/25 05:16:58;;;;;;;29.50;17.25;;;;;;;;;;4990030;28;20019;-80
2022/04/25 05:19:24;;;;;;;27.02;15.90;;;;;;;;;;4992299;28;20808;-80
2022/04/25 05:21:51;;;;;;;36.03;16.88;;;;;;;;;;4989348;28;20030;-80
2022/04/25 05:24:17;;;;;;;27.67;15.25;;;;;;;;;;4988294;28;20023;-80
2022/04/25 05:26:43;;;;;;;33.33;17.30;;;;;;;;;;4992907;28;20041;-80
2022/04/25 05:29:10;;;;;;;32.53;19.13;;;;;;;;;;4993058;28;20498;-80
2022/04/25 05:31:36;;;;;;;37.72;20.55;;;;;;;;;;4991940;28;20032;-80
2022/04/25 05:34:03;;;;;;;35.70;19.88;;;;;;;;;;4993346;28;20030;-80
2022/04/25 05:36:29;;;;;;;33.90;20.10;;;;;;;;;;4993013;28;20038;-80
2022/04/25 05:38:55;;;;;;;27.10;18.38;;;;;;;;;;4992473;28;20030;-80
2022/04/25 05:41:22;;;;;;;23.48;15.48;;;;;;;;;;4992691;28;20027;-80
2022/04/25 05:43:48;;;;;;;22.75;15.00;;;;;;;;;;4992569;28;20018;-80
2022/04/25 05:46:15;;;;;;;24.30;14.05;;;;;;;;;;4992679;28;20038;-80
2022/04/25 05:54:12;;;;;;;25.08;15.65;;;;;;;;;;4992344;28;20030;-80
2022/04/25 05:56:39;;;;;;;20.33;13.25;;;;;;;;;;4992773;28;20034;-80
2022/04/25 05:59:05;;;;;;;22.50;11.30;;;;;;;;;;4992557;28;20015;-80
2022/04/25 06:01:32;;;;;;;18.30;9.95;;;;;;;;;;5007886;28;20022;-80
2022/04/25 06:03:58;;;;;;;13.52;8.63;;;;;;;;;;4992770;28;20015;-80
2022/04/25 06:06:26;;;;;;;16.73;9.10;;;;;;;;;;4991893;28;20026;-80
2022/04/25 06:08:52;;;;;;;20.50;8.43;;;;;;;;;;4991371;28;20018;-81
2022/04/25 06:11:21;;;;;;;14.55;7.70;;;;;;;;;;4990093;28;20024;-80
2022/04/25 06:13:50;;;;;;;9.88;5.85;;;;;;;;;;4990731;28;20030;-80
2022/04/25 06:16:17;;;;;;;12.40;6.82;;;;;;;;;;4989518;28;20057;-81
2022/04/25 06:18:43;;;;;;;13.32;6.63;;;;;;;;;;5003494;28;20026;-80
2022/04/25 06:21:10;;;;;;;12.73;6.82;;;;;;;;;;4989937;28;20380;-81
2022/04/25 06:23:37;;;;;;;12.82;6.03;;;;;;;;;;5000494;28;20034;-80
2022/04/25 06:26:03;;;;;;;10.80;6.03;;;;;;;;;;5006856;28;20027;-80
2022/04/25 06:28:30;;;;;;;16.77;6.15;;;;;;;;;;4991493;28;20022;-81
2022/04/25 06:30:56;;;;;;;10.20;5.88;;;;;;;;;;4994237;28;20040;-81
2022/04/25 06:33:23;;;;;;;10.25;6.05;;;;;;;;;;4990169;28;20014;-81
2022/04/25 06:35:49;;;;;;;13.70;5.88;;;;;;;;;;4988226;28;20031;-81
2022/04/25 06:38:18;;;;;;;13.65;6.13;;;;;;;;;;4993569;28;20539;-80
2022/04/25 06:40:47;;;;;;;9.40;5.15;;;;;;;;;;4989934;28;20026;-81
2022/04/25 06:43:14;;;;;;;12.38;5.30;;;;;;;;;;4989784;28;20022;-81
2022/04/25 06:45:41;;;;;;;12.95;4.95;;;;;;;;;;4991628;28;20050;-81
2022/04/25 06:48:08;;;;;;;14.35;5.32;;;;;;;;;;4991315;28;20022;-80
2022/04/25 06:50:34;;;;;;;12.27;5.60;;;;;;;;;;4986367;28;20042;-81
2022/04/25 06:53:00;;;;;;;13.10;5.15;;;;;;;;;;4980717;28;20160;-80
2022/04/25 06:55:27;;;;;;;11.93;4.85;;;;;;;;;;4990540;28;20038;-80
2022/04/25 06:57:54;;;;;;;13.30;5.03;;;;;;;;;;4987728;28;20038;-80
2022/04/25 07:00:22;;;;;;;8.85;4.90;;;;;;;;;;4990851;28;20512;-81
2022/04/25 07:02:51;;;;;;;9.90;4.40;;;;;;;;;;4991209;28;20030;-80
2022/04/25 07:05:17;;;;;;;11.43;4.88;;;;;;;;;;4990673;28;20029;-80
2022/04/25 07:07:44;;;;;;;9.95;4.60;;;;;;;;;;4989950;28;20030;-80
2022/04/25 07:10:10;;;;;;;10.57;4.65;;;;;;;;;;4988164;28;20514;-80
2022/04/25 07:12:37;;;;;;;11.45;4.85;;;;;;;;;;4992966;28;20040;-80
2022/04/25 07:15:03;;;;;;;7.13;4.57;;;;;;;;;;4986878;28;20046;-80
2022/04/25 07:17:30;;;;;;;8.75;4.13;;;;;;;;;;4986806;28;20038;-80
2022/04/25 07:19:56;;;;;;;12.35;4.38;;;;;;;;;;4990719;28;20030;-79
2022/04/25 07:30:38;;;;;;;7.57;4.43;;;;;;;;;;4992786;28;20028;-77
2022/04/25 07:33:04;;;;;;;11.45;4.60;;;;;;;;;;4999924;28;20034;-77
2022/04/25 07:35:31;;;;;;;9.13;4.72;;;;;;;;;;5000412;28;20368;-80
2022/04/25 07:37:57;;;;;;;8.15;4.35;;;;;;;;;;4993791;28;20033;-82
2022/04/25 07:40:24;;;;;;;7.22;3.88;;;;;;;;;;4992901;28;20030;-73
2022/04/25 07:42:50;;;;;;;10.10;4.10;;;;;;;;;;4995353;28;20030;-79
2022/04/25 07:45:17;;;;;;;8.07;3.72;;;;;;;;;;4989232;28;20057;-78
2022/04/25 07:47:45;;;;;;;8.75;4.07;;;;;;;;;;4989144;28;20514;-79
2022/04/25 07:50:11;;;;;;;9.93;4.43;;;;;;;;;;4993032;28;20030;-87
2022/04/25 07:52:37;;;;;;;7.30;4.13;;;;;;;;;;4994789;28;20025;-76
2022/04/25 07:55:06;;;;;;;7.38;4.10;;;;;;;;;;4995369;28;20034;-76
2022/04/25 07:57:33;;;;;;;7.68;3.92;;;;;;;;;;4995129;28;20018;-76
2022/04/25 07:59:59;;;;;;;10.52;4.07;;;;;;;;;;4995281;28;20038;-76
2022/04/25 08:02:26;;;;;;;16.73;3.90;;;;;;;;;;4994187;28;20026;-76
2022/04/25 08:04:52;;;;;;;9.30;4.22;;;;;;;;;;4994539;28;20034;-76
2022/04/25 08:07:18;;;;;;;18.30;4.40;;;;;;;;;;4994420;28;20030;-77
2022/04/25 08:09:45;;;;;;;7.10;4.18;;;;;;;;;;4994374;28;20037;-77
2022/04/25 08:17:59;;;;;;;8.98;3.65;;;;;;;;;;5007491;28;20031;-77
2022/04/25 08:20:27;;;;;;;8.48;3.60;;;;;;;;;;4989924;28;20022;-77
2022/04/25 08:22:55;;;;;;;6.90;3.65;;;;;;;;;;4991846;28;20038;-77
2022/04/25 08:25:21;;;;;;;6.25;4.00;;;;;;;;;;4992283;28;20355;-77
2022/04/25 08:27:47;;;;;;;7.40;3.50;;;;;;;;;;4990959;28;20034;-77
2022/04/25 08:30:14;;;;;;;6.43;3.60;;;;;;;;;;4993579;28;20030;-77
2022/04/25 08:32:40;;;;;;;8.95;3.85;;;;;;;;;;4989719;28;20026;-77
2022/04/25 08:35:09;;;;;;;7.10;3.35;;;;;;;;;;4994403;28;20014;-77
2022/04/25 08:37:36;;;;;;;7.40;3.83;;;;;;;;;;4978545;28;20026;-77
2022/04/25 08:40:02;;;;;;;10.88;4.00;;;;;;;;;;4990427;28;20038;-77
2022/04/25 08:42:31;;;;;;;6.28;3.22;;;;;;;;;;4993438;28;20036;-77
2022/04/25 08:44:59;;;;;;;6.78;3.65;;;;;;;;;;4988945;28;20054;-77
2022/04/25 08:47:30;;;;;;;10.55;3.55;;;;;;;;;;4988931;28;20019;-77
2022/04/25 08:49:58;;;;;;;9.45;3.58;;;;;;;;;;4990875;28;20081;-77
2022/04/25 08:52:26;;;;;;;6.00;3.67;;;;;;;;;;4992497;28;20522;-77
2022/04/25 08:54:54;;;;;;;4.43;3.40;;;;;;;;;;4989509;28;20443;-77
2022/04/25 08:57:21;;;;;;;6.25;3.28;;;;;;;;;;4992477;28;20032;-77
2022/04/25 08:59:48;;;;;;;7.47;3.75;;;;;;;;;;4991453;28;20034;-77
2022/04/25 09:02:14;;;;;;;6.45;3.67;;;;;;;;;;4992906;28;20038;-77
2022/04/25 09:04:41;;;;;;;9.90;3.80;;;;;;;;;;4991365;28;20041;-77
2022/04/25 09:07:07;;;;;;;5.80;3.70;;;;;;;;;;4990223;28;20028;-77
2022/04/25 09:09:33;;;;;;;6.55;3.88;;;;;;;;;;4998078;28;20026;-77
2022/04/25 09:12:09;;;;;;;7.20;3.42;;;;;;;;;;4992593;28;20427;-77
2022/04/25 09:14:40;;;;;;;6.00;3.20;;;;;;;;;;4991664;28;20029;-78
2022/04/25 09:17:07;;;;;;;5.13;3.70;;;;;;;;;;4992943;28;20087;-78
2022/04/25 09:19:33;;;;;;;8.38;3.83;;;;;;;;;;4978495;28;20022;-78
2022/04/25 09:22:00;;;;;;;9.02;3.55;;;;;;;;;;4993444;28;20026;-78
2022/04/25 09:24:26;;;;;;;6.40;3.50;;;;;;;;;;4992881;28;20026;-77
2022/04/25 09:27:08;;;;;;;4.75;3.25;;;;;;;;;;4992889;28;20495;-77
2022/04/25 09:29:37;;;;;;;7.22;3.55;;;;;;;;;;4992299;28;20518;-77
2022/04/25 09:32:04;;;;;;;5.47;3.13;;;;;;;;;;4991689;28;20027;-82
2022/04/25 09:37:17;;;;;;;7.68;3.85;;;;;;;;;;4990345;28;20030;-77
2022/04/25 09:39:44;;;;;;;5.80;2.90;;;;;;;;;;4994441;28;20045;-77
2022/04/25 09:42:11;;;;;;;5.88;3.20;;;;;;;;;;4991927;28;20027;-77
2022/04/25 09:44:57;;;;;;;7.00;3.28;;;;;;;;;;4987134;28;20388;-77
2022/04/25 09:47:30;;;;;;;4.68;3.25;;;;;;;;;;4988165;28;20034;-77
2022/04/25 09:50:27;;;;;;;7.65;3.70;;;;;;;;;;4990010;28;20476;-77
2022/04/25 09:52:57;;;;;;;8.48;3.60;;;;;;;;;;4976926;28;20525;-77
2022/04/25 09:55:23;;;;;;;;;;;;;;;;;;4989118;28;20022;-77
2022/04/25 09:57:50;;;;;;;8.50;3.63;;;;;;;;;;4991792;28;19909;-76
2022/04/25 10:00:33;;;;;;;6.97;3.78;;;;;;;;;;4992176;28;20026;-76
2022/04/25 10:03:02;;;;;;;6.28;3.00;;;;;;;;;;4987700;28;20491;-77
2022/04/25 10:05:37;;;;;;;9.33;3.37;;;;;;;;;;4987945;28;20515;-77
2022/04/25 10:08:05;;;;;;;6.82;3.70;;;;;;;;;;5006598;28;20030;-77
2022/04/25 10:10:32;;;;;;;7.10;3.40;;;;;;;;;;4992374;28;20510;-76
2022/04/25 10:12:59;;;;;;;7.25;3.58;;;;;;;;;;4992926;28;20026;-77
2022/04/25 10:15:25;;;;;;;5.35;3.35;;;;;;;;;;4992117;28;20042;-77
2022/04/25 10:17:52;;;;;;;7.88;3.92;;;;;;;;;;4992004;28;20018;-77
2022/04/25 10:20:19;;;;;;;6.18;3.10;;;;;;;;;;4992361;28;20030;-77
2022/04/25 10:22:45;;;;;;;13.63;3.38;;;;;;;;;;4991956;28;20056;-77
2022/04/25 10:25:11;;;;;;;9.48;3.70;;;;;;;;;;4992711;28;20036;-77
2022/04/25 10:27:40;;;;;;;13.13;3.90;;;;;;;;;;4987700;28;20471;-76
2022/04/25 10:30:14;;;;;;;8.02;3.20;;;;;;;;;;4987542;28;20049;-77
2022/04/25 10:32:41;;;;;;;9.30;4.00;;;;;;;;;;4987534;28;20049;-77
2022/04/25 10:35:13;;;;;;;4.63;3.80;;;;;;;;;;4987841;28;20029;-76
2022/04/25 10:37:40;;;;;;;4.85;3.35;;;;;;;;;;4977124;28;20500;-77
2022/04/25 10:40:08;;;;;;;6.13;3.15;;;;;;;;;;4992131;28;20037;-77
2022/04/25 10:45:56;;;;;;;8.95;3.80;;;;;;;;;;4991408;28;20038;-77
2022/04/25 10:48:23;;;;;;;6.32;3.70;;;;;;;;;;4991791;28;20037;-77
2022/04/25 10:51:18;;;;;;;7.35;3.58;;;;;;;;;;4991698;28;20022;-77
2022/04/25 10:54:01;;;;;;;5.60;3.40;;;;;;;;;;4984797;28;20050;-77
2022/04/25 10:56:28;;;;;;;5.28;3.90;;;;;;;;;;4991874;28;20043;-77
2022/04/25 10:59:12;;;;;;;6.30;3.60;;;;;;;;;;4996075;28;20033;-77
2022/04/25 11:01:45;;;;;;;5.90;3.58;;;;;;;;;;4980708;28;20034;-77
2022/04/25 11:04:14;;;;;;;7.35;3.70;;;;;;;;;;4996150;28;20017;-77
2022/04/25 11:06:40;;;;;;;9.00;4.03;;;;;;;;;;4990800;28;20522;-77
2022/04/25 11:09:06;;;;;;;9.18;3.70;;;;;;;;;;4991574;28;20080;-77
2022/04/25 11:11:51;;;;;;;6.50;3.70;;;;;;;;;;4990883;28;20084;-77
2022/04/25 11:14:18;;;;;;;6.00;3.70;;;;;;;;;;4991247;28;20097;-77
2022/04/25 11:17:05;;;;;;;6.18;3.70;;;;;;;;;;4995723;28;20033;-73
2022/04/25 11:19:53;;;;;;;6.18;2.80;;;;;;;;;;4995389;28;20030;-73
2022/04/25 11:22:31;;;;;;;7.25;3.80;;;;;;;;;;4993480;28;20022;-74
2022/04/25 11:24:57;;;;;;;7.60;3.90;;;;;;;;;;5000033;28;20064;-73
2022/04/25 11:27:23;;;;;;;7.60;4.05;;;;;;;;;;4991772;28;20347;-73
2022/04/25 11:30:17;;;;;;;7.25;4.15;;;;;;;;;;4991211;28;20386;-73
2022/04/25 11:32:43;;;;;;;8.60;3.67;;;;;;;;;;4991841;28;20038;-73
2022/04/25 11:35:10;;;;;;;6.60;3.40;;;;;;;;;;4990666;28;20110;-73
2022/04/25 11:37:36;;;;;;;5.97;3.28;;;;;;;;;;4995097;28;20033;-73
2022/04/25 11:40:04;;;;;;;11.25;3.85;;;;;;;;;;4991159;28;20510;-73
2022/04/25 11:42:31;;;;;;;6.85;3.92;;;;;;;;;;4990683;28;20022;-73
2022/04/25 11:44:59;;;;;;;6.80;3.40;;;;;;;;;;5005913;28;20053;-73
2022/04/25 11:47:26;;;;;;;7.95;4.30;;;;;;;;;;5001342;28;20019;-74
2022/04/25 11:49:59;;;;;;;6.90;4.22;;;;;;;;;;4994530;28;20025;-73
2022/04/25 11:52:26;;;;;;;9.73;4.15;;;;;;;;;;4994784;28;24158;-73
2022/04/25 11:54:54;;;;;;;5.40;3.90;;;;;;;;;;4994722;28;20065;-73
2022/04/25 11:57:20;;;;;;;7.05;4.13;;;;;;;;;;4994490;28;20018;-73
2022/04/25 11:59:46;;;;;;;4.78;3.35;;;;;;;;;;4994884;28;20034;-73
2022/04/25 12:02:13;;;;;;;6.75;3.90;;;;;;;;;;4992116;28;20541;-73
2022/04/25 12:04:41;;;;;;;9.30;3.75;;;;;;;;;;4994478;28;20034;-74
2022/04/25 12:07:08;;;;;;;6.85;3.60;;;;;;;;;;4993067;28;20022;-73
2022/04/25 12:18:14;;;;;;;8.48;3.47;;;;;;;;;;4997280;28;20040;-75
2022/04/25 12:20:42;;;;;;;6.03;3.70;;;;;;;;;;4989912;28;20021;-73
2022/04/25 12:23:10;;;;;;;6.97;3.58;;;;;;;;;;4993645;28;20030;-75
2022/04/25 12:25:40;;;;;;;8.63;3.72;;;;;;;;;;4978786;28;20381;-76
2022/04/25 12:28:06;;;;;;;;;;;;;;;;;;4990906;28;20031;-73
2022/04/25 12:30:45;;;;;;;12.23;3.60;;;;;;;;;;4992088;28;19906;-75
2022/04/25 12:33:13;;;;;;;9.40;3.50;;;;;;;;;;4993778;28;20381;-76
2022/04/25 12:35:39;;;;;;;9.75;3.83;;;;;;;;;;4993726;28;20462;-73
2022/04/25 12:38:06;;;;;;;8.30;3.83;;;;;;;;;;5006246;28;20037;-76
2022/04/25 12:40:33;;;;;;;7.88;3.90;;;;;;;;;;4993546;28;20030;-76
2022/04/25 12:43:00;;;;;;;7.32;3.63;;;;;;;;;;4993250;28;20502;-76
2022/04/25 12:45:26;;;;;;;5.97;3.60;;;;;;;;;;4989625;28;20148;-76
2022/04/25 12:47:57;;;;;;;8.00;3.50;;;;;;;;;;4989112;28;20033;-76
2022/04/25 12:50:42;;;;;;;6.30;3.35;;;;;;;;;;4993837;28;20284;-76
2022/04/25 12:53:09;;;;;;;7.93;3.63;;;;;;;;;;4991368;28;20033;-76
2022/04/25 12:55:48;;;;;;;5.47;3.10;;;;;;;;;;4979798;28;20034;-76
2022/04/25 12:58:16;;;;;;;10.32;3.75;;;;;;;;;;4990719;28;20093;-76
2022/04/25 13:00:43;;;;;;;7.82;3.42;;;;;;;;;;4991966;28;20038;-76
2022/04/25 13:03:11;;;;;;;10.45;3.15;;;;;;;;;;4988750;28;20030;-73
2022/04/25 13:05:38;;;;;;;5.32;3.20;;;;;;;;;;4992170;28;20022;-73
2022/04/25 13:08:04;;;;;;;5.88;3.80;;;;;;;;;;4992724;28;20041;-76
2022/04/25 13:10:31;;;;;;;8.25;3.67;;;;;;;;;;4992251;28;20037;-76
2022/04/25 13:12:58;;;;;;;10.43;4.10;;;;;;;;;;4991903;28;20037;-76
2022/04/25 13:15:31;;;;;;;5.57;3.25;;;;;;;;;;4992553;28;20038;-76
2022/04/25 13:17:58;;;;;;;6.10;3.30;;;;;;;;;;4988451;28;20018;-75
2022/04/25 13:20:28;;;;;;;6.85;3.00;;;;;;;;;;4990804;28;20034;-75
2022/04/25 13:22:55;;;;;;;5.80;3.17;;;;;;;;;;4992171;28;20597;-75
2022/04/25 13:25:23;;;;;;;12.43;3.22;;;;;;;;;;4992930;28;20347;-73
2022/04/25 13:27:50;;;;;;;11.30;3.60;;;;;;;;;;4989528;28;20014;-75
2022/04/25 13:30:18;;;;;;;9.85;3.60;;;;;;;;;;4992748;28;20033;-75
2022/04/25 13:32:45;;;;;;;5.50;2.83;;;;;;;;;;4992788;28;20030;-75
2022/04/25 13:35:12;;;;;;;8.48;3.17;;;;;;;;;;4993020;28;20088;-75
2022/04/25 13:37:38;;;;;;;5.45;3.10;;;;;;;;;;4990507;28;20029;-76
2022/04/25 13:40:06;;;;;;;9.48;3.22;;;;;;;;;;4990919;28;20032;-76
2022/04/25 13:42:32;;;;;;;6.13;2.80;;;;;;;;;;4993052;28;20026;-75
2022/04/25 13:44:59;;;;;;;6.70;3.20;;;;;;;;;;4992522;28;20042;-75
2022/04/25 13:47:27;;;;;;;5.15;3.00;;;;;;;;;;4992487;28;20041;-75
2022/04/25 13:49:54;;;;;;;8.02;3.20;;;;;;;;;;4990695;28;20019;-75
2022/04/25 13:52:20;;;;;;;6.45;3.38;;;;;;;;;;4991934;28;20383;-75
2022/04/25 13:54:47;;;;;;;5.97;3.20;;;;;;;;;;4992537;28;20030;-76
2022/04/25 13:57:13;;;;;;;8.93;4.22;;;;;;;;;;4987251;28;20491;-75
2022/04/25 13:59:40;;;;;;;6.65;3.40;;;;;;;;;;4993234;28;20537;-75
2022/04/25 14:04:56;;;;;;;5.75;3.03;;;;;;;;;;5006602;28;20576;-75
2022/04/25 14:07:23;;;;;;;6.10;3.17;;;;;;;;;;5009160;28;20557;-76
2022/04/25 14:09:49;;;;;;;6.30;3.28;;;;;;;;;;5005908;28;20050;-74
2022/04/25 14:12:15;;;;;;;7.68;3.70;;;;;;;;;;5005409;28;20045;-75
2022/04/25 14:14:42;;;;;;;9.20;3.70;;;;;;;;;;5004392;28;20511;-75
2022/04/25 14:17:08;;;;;;;6.43;3.40;;;;;;;;;;5008762;28;20091;-75
2022/04/25 14:19:34;;;;;;;9.60;2.75;;;;;;;;;;5008740;28;20034;-76
2022/04/25 14:22:01;;;;;;;8.27;3.67;;;;;;;;;;5005277;28;20495;-76
2022/04/25 14:24:27;;;;;;;7.80;3.60;;;;;;;;;;5005721;28;20026;-76
2022/04/25 14:26:53;;;;;;;8.68;3.40;;;;;;;;;;5004851;28;20026;-75
2022/04/25 14:29:20;;;;;;;6.45;3.50;;;;;;;;;;4988578;28;20046;-76
2022/04/25 14:31:48;;;;;;;6.63;3.25;;;;;;;;;;5006420;28;20036;-75
2022/04/25 14:34:14;;;;;;;10.43;4.00;;;;;;;;;;5006509;28;20032;-76
2022/04/25 14:36:40;;;;;;;7.90;3.03;;;;;;;;;;5005163;28;20079;-75
2022/04/25 14:39:07;;;;;;;10.27;3.00;;;;;;;;;;5014995;28;20013;-75
2022/04/25 14:41:33;;;;;;;8.77;2.85;;;;;;;;;;4993159;28;20088;-76
2022/04/25 14:43:59;;;;;;;7.38;3.08;;;;;;;;;;4997443;28;20120;-76
2022/04/25 14:46:26;;;;;;;8.43;3.22;;;;;;;;;;4990268;28;20030;-75
2022/04/25 14:48:52;;;;;;;6.72;2.90;;;;;;;;;;4991329;28;20029;-75
2022/04/25 14:54:20;;;;;;;6.28;2.88;;;;;;;;;;4987096;28;20041;-75
2022/04/25 14:56:47;;;;;;;5.55;3.17;;;;;;;;;;4991395;28;20465;-75
2022/04/25 14:59:15;;;;;;;9.70;3.65;;;;;;;;;;4986920;28;20492;-75
2022/04/25 15:01:41;;;;;;;6.20;3.35;;;;;;;;;;4991038;28;20515;-76
2022/04/25 15:04:08;;;;;;;11.65;3.00;;;;;;;;;;4987901;28;20022;-76
2022/04/25 15:06:34;;;;;;;7.47;3.50;;;;;;;;;;4987559;28;20065;-75
2022/04/25 15:09:00;;;;;;;6.97;3.72;;;;;;;;;;4987438;28;20027;-75
2022/04/25 15:11:27;;;;;;;7.30;3.40;;;;;;;;;;4990645;28;20034;-76
2022/04/25 15:13:53;;;;;;;6.60;3.28;;;;;;;;;;4990215;28;20023;-76
2022/04/25 15:16:19;;;;;;;8.85;2.88;;;;;;;;;;4990416;28;20454;-76
2022/04/25 15:18:46;;;;;;;5.05;2.83;;;;;;;;;;4999787;28;20032;-76
2022/04/25 15:21:14;;;;;;;7.63;3.05;;;;;;;;;;5007560;28;20030;-75
2022/04/25 15:23:41;;;;;;;9.00;3.28;;;;;;;;;;4991309;28;20028;-75